createdAt,value
2023-04-15T00:00:58.885Z,10.95
2023-04-15T00:03:25.885Z,10.85
2023-04-15T00:05:52.750Z,10.81
2023-04-15T00:08:20.422Z,10.86
2023-04-15T00:10:46.951Z,10.85
2023-04-15T00:13:13.589Z,10.79
2023-04-15T00:15:40.066Z,10.80
2023-04-15T00:18:08.245Z,10.77
2023-04-15T00:20:35.326Z,10.83
2023-04-15T00:23:04.132Z,10.76
2023-04-15T00:25:30.901Z,10.73
2023-04-15T00:27:57.497Z,10.74
2023-04-15T00:30:24.087Z,10.72
2023-04-15T00:32:50.871Z,10.68
2023-04-15T00:35:17.468Z,10.64
2023-04-15T00:37:46.018Z,10.62
2023-04-15T00:40:13.736Z,10.56
2023-04-15T00:42:40.736Z,10.58
2023-04-15T00:45:08.775Z,10.54
2023-04-15T00:47:37.262Z,10.51
2023-04-15T00:50:03.989Z,10.48
2023-04-15T00:52:30.753Z,10.35
2023-04-15T00:54:57.710Z,10.24
2023-04-15T00:57:24.466Z,10.12
2023-04-15T00:59:52.746Z,10.02
2023-04-15T01:02:19.907Z,10.05
2023-04-15T01:04:47.058Z,10.06
2023-04-15T01:07:13.580Z,9.98
2023-04-15T01:09:40.681Z,9.86
2023-04-15T01:12:08.670Z,9.71
2023-04-15T01:14:35.199Z,9.62
2023-04-15T01:17:02.256Z,9.53
2023-04-15T01:19:29.089Z,9.51
2023-04-15T01:21:56.393Z,9.46
2023-04-15T01:24:24.064Z,9.44
2023-04-15T01:26:50.545Z,9.43
2023-04-15T01:29:18.002Z,9.42
2023-04-15T01:31:55.969Z,9.35
2023-04-15T01:34:22.617Z,9.36
2023-04-15T01:36:49.092Z,9.29
2023-04-15T01:39:15.919Z,9.33
2023-04-15T01:41:42.421Z,9.33
2023-04-15T01:44:09.168Z,9.26
2023-04-15T01:46:37.088Z,9.27
2023-04-15T01:49:03.640Z,9.27
2023-04-15T01:51:30.185Z,9.30
2023-04-15T01:53:57.092Z,9.33
2023-04-15T01:56:26.873Z,9.25
2023-04-15T01:58:53.449Z,9.19
2023-04-15T02:01:20.236Z,9.15
2023-04-15T02:03:47.896Z,9.12
2023-04-15T02:06:14.790Z,9.07
2023-04-15T02:08:41.355Z,9.09
2023-04-15T02:11:08.268Z,9.03
2023-04-15T02:13:34.733Z,9.06
2023-04-15T02:16:01.506Z,8.93
2023-04-15T02:18:28.076Z,8.82
2023-04-15T02:20:54.654Z,8.79
2023-04-15T02:23:21.175Z,8.82
2023-04-15T02:25:53.773Z,8.67
2023-04-15T02:28:21.903Z,8.60
2023-04-15T02:30:52.668Z,8.56
2023-04-15T02:33:19.552Z,8.52
2023-04-15T02:35:46.073Z,8.51
2023-04-15T02:38:12.635Z,8.45
2023-04-15T02:40:39.218Z,8.37
2023-04-15T02:43:07.053Z,8.34
2023-04-15T02:45:33.686Z,8.37
2023-04-15T02:48:03.886Z,8.30
2023-04-15T02:50:31.639Z,8.27
2023-04-15T02:52:58.128Z,8.26
2023-04-15T02:55:24.688Z,8.18
2023-04-15T02:57:51.461Z,8.22
2023-04-15T03:00:17.966Z,8.19
2023-04-15T03:02:47.372Z,8.22
2023-04-15T03:05:14.769Z,8.21
2023-04-15T03:07:41.185Z,8.17
2023-04-15T03:10:08.764Z,8.20
2023-04-15T03:12:35.278Z,8.19
2023-04-15T03:15:02.156Z,8.16
2023-04-15T03:17:28.605Z,8.21
2023-04-15T03:19:55.494Z,8.17
2023-04-15T03:22:21.996Z,8.11
2023-04-15T03:24:48.553Z,8.09
2023-04-15T03:27:14.998Z,8.08
2023-04-15T03:29:41.524Z,8.11
2023-04-15T03:32:07.984Z,8.08
2023-04-15T03:34:34.445Z,8.03
2023-04-15T03:37:01.023Z,8.03
2023-04-15T03:39:27.483Z,8.03
2023-04-15T03:41:53.971Z,8.02
2023-04-15T03:44:20.384Z,7.98
2023-04-15T03:46:46.893Z,7.95
2023-04-15T03:49:14.174Z,7.94
2023-04-15T03:51:40.730Z,7.90
2023-04-15T03:54:07.218Z,7.85
2023-04-15T03:56:33.699Z,7.88
2023-04-15T03:59:00.604Z,7.88
2023-04-15T04:01:27.253Z,7.89
2023-04-15T04:03:53.857Z,7.84
2023-04-15T04:06:20.559Z,7.94
2023-04-15T04:08:47.037Z,7.95
2023-04-15T04:11:13.523Z,7.93
2023-04-15T04:13:40.662Z,7.91
2023-04-15T04:16:07.268Z,7.86
2023-04-15T04:18:33.957Z,7.84
2023-04-15T04:21:00.666Z,7.80
2023-04-15T04:23:27.165Z,7.76
2023-04-15T04:25:53.674Z,7.72
2023-04-15T04:28:20.104Z,7.72
2023-04-15T04:30:46.625Z,7.73
2023-04-15T04:33:13.258Z,7.75
2023-04-15T04:35:39.777Z,7.74
2023-04-15T04:38:06.333Z,7.77
2023-04-15T04:40:32.831Z,7.66
2023-04-15T04:42:59.354Z,7.68
2023-04-15T04:45:25.819Z,7.59
2023-04-15T04:47:52.365Z,7.64
2023-04-15T04:50:18.892Z,7.70
2023-04-15T04:52:45.392Z,7.64
2023-04-15T04:55:12.449Z,7.66
2023-04-15T04:57:42.240Z,7.67
2023-04-15T05:00:09.339Z,7.58
2023-04-15T05:02:36.206Z,7.67
2023-04-15T05:05:02.805Z,7.64
2023-04-15T05:07:29.252Z,7.51
2023-04-15T05:09:55.914Z,7.55
2023-04-15T05:12:22.539Z,7.65
2023-04-15T05:14:48.998Z,7.72
2023-04-15T05:17:15.511Z,7.68
2023-04-15T05:19:42.077Z,7.63
2023-04-15T05:22:08.676Z,7.62
2023-04-15T05:24:35.182Z,7.69
2023-04-15T05:27:02.159Z,7.78
2023-04-15T05:29:29.000Z,7.80
2023-04-15T05:31:56.037Z,7.79
2023-04-15T05:34:22.922Z,7.83
2023-04-15T05:36:49.484Z,7.84
2023-04-15T05:39:16.164Z,7.90
2023-04-15T05:41:42.657Z,7.84
2023-04-15T05:44:09.188Z,7.85
2023-04-15T05:46:37.226Z,7.76
2023-04-15T05:49:04.052Z,7.66
2023-04-15T05:51:31.394Z,7.74
2023-04-15T05:53:57.868Z,7.79
2023-04-15T05:56:26.767Z,7.73
2023-04-15T05:58:53.920Z,7.75
2023-04-15T06:01:20.691Z,7.81
2023-04-15T06:03:47.286Z,7.75
2023-04-15T06:06:14.335Z,7.80
2023-04-15T06:08:41.300Z,7.81
2023-04-15T06:11:07.762Z,7.83
2023-04-15T06:13:35.063Z,7.86
2023-04-15T06:16:01.621Z,7.89
2023-04-15T06:18:28.104Z,7.85
2023-04-15T06:20:54.579Z,7.95
2023-04-15T06:23:21.209Z,7.93
2023-04-15T06:25:47.931Z,7.97
2023-04-15T06:28:14.368Z,8.01
2023-04-15T06:30:41.123Z,8.09
2023-04-15T06:33:07.619Z,8.11
2023-04-15T06:35:34.171Z,8.12
2023-04-15T06:38:00.710Z,8.31
2023-04-15T06:40:27.785Z,8.45
2023-04-15T06:42:54.991Z,8.55
2023-04-15T06:45:21.517Z,8.58
2023-04-15T06:47:48.065Z,8.55
2023-04-15T06:50:14.599Z,8.58
2023-04-15T06:52:41.523Z,8.66
2023-04-15T06:55:08.769Z,8.70
2023-04-15T06:57:35.341Z,8.82
2023-04-15T07:00:02.326Z,8.98
2023-04-15T07:02:28.876Z,9.06
2023-04-15T07:04:55.574Z,9.16
2023-04-15T07:07:22.250Z,9.24
2023-04-15T07:09:48.771Z,9.35
2023-04-15T07:12:15.286Z,9.49
2023-04-15T07:14:42.248Z,9.63
2023-04-15T07:17:09.699Z,9.85
2023-04-15T07:19:36.557Z,9.92
2023-04-15T07:22:03.011Z,10.13
2023-04-15T07:24:30.026Z,10.30
2023-04-15T07:27:01.044Z,10.44
2023-04-15T07:29:27.951Z,10.61
2023-04-15T07:31:54.421Z,10.70
2023-04-15T07:34:21.104Z,10.72
2023-04-15T07:36:50.630Z,10.76
2023-04-15T07:39:20.172Z,10.81
2023-04-15T07:41:46.658Z,10.91
2023-04-15T07:44:13.263Z,10.87
2023-04-15T07:46:39.842Z,10.96
2023-04-15T07:49:07.483Z,11.11
2023-04-15T07:51:34.110Z,11.30
2023-04-15T07:54:00.588Z,11.53
2023-04-15T07:56:27.141Z,11.71
2023-04-15T07:58:53.608Z,11.76
2023-04-15T08:01:20.303Z,11.86
2023-04-15T08:03:47.290Z,11.89
2023-04-15T08:06:14.237Z,11.98
2023-04-15T08:08:40.708Z,12.11
2023-04-15T08:11:07.200Z,12.21
2023-04-15T08:13:33.664Z,12.26
2023-04-15T08:16:14.233Z,12.42
2023-04-15T08:18:40.732Z,12.49
2023-04-15T08:21:07.357Z,12.57
2023-04-15T08:23:34.612Z,12.65
2023-04-15T08:26:01.523Z,12.71
2023-04-15T08:28:27.989Z,12.73
2023-04-15T08:30:54.557Z,12.91
2023-04-15T08:33:21.357Z,12.86
2023-04-15T08:35:49.153Z,12.88
2023-04-15T08:38:15.642Z,13.00
2023-04-15T08:40:44.342Z,13.03
2023-04-15T08:43:15.769Z,13.15
2023-04-15T08:45:44.174Z,13.24
2023-04-15T08:48:16.849Z,13.25
2023-04-15T08:50:43.921Z,13.22
2023-04-15T08:53:11.706Z,13.12
2023-04-15T08:55:45.977Z,13.12
2023-04-15T08:58:13.693Z,13.20
2023-04-15T09:00:41.388Z,13.20
2023-04-15T09:03:09.276Z,13.29
2023-04-15T09:05:37.175Z,13.37
2023-04-15T09:08:05.528Z,13.33
2023-04-15T09:10:33.505Z,13.23
2023-04-15T09:13:01.110Z,13.32
2023-04-15T09:15:29.493Z,13.50
2023-04-15T09:17:59.090Z,13.56
2023-04-15T09:20:25.584Z,13.61
2023-04-15T09:22:52.354Z,13.73
2023-04-15T09:25:21.834Z,13.82
2023-04-15T09:27:53.915Z,14.04
2023-04-15T09:30:20.688Z,14.29
2023-04-15T09:32:50.468Z,14.40
2023-04-15T09:35:17.354Z,14.30
2023-04-15T09:37:43.830Z,14.22
2023-04-15T09:40:11.024Z,14.29
2023-04-15T09:42:38.064Z,14.56
2023-04-15T09:45:13.633Z,14.61
2023-04-15T09:47:40.503Z,14.38
2023-04-15T09:50:07.575Z,14.27
2023-04-15T09:52:34.251Z,14.31
2023-04-15T09:55:00.993Z,14.33
2023-04-15T09:57:35.397Z,14.18
2023-04-15T10:00:06.585Z,14.21
2023-04-15T10:02:33.631Z,14.14
2023-04-15T10:05:04.169Z,14.07
2023-04-15T10:07:30.906Z,14.12
2023-04-15T10:09:59.859Z,14.19
2023-04-15T10:12:27.444Z,14.34
2023-04-15T10:14:59.506Z,14.42
2023-04-15T10:17:35.220Z,14.42
2023-04-15T10:20:04.636Z,14.26
2023-04-15T10:22:32.922Z,14.38
2023-04-15T10:25:02.435Z,14.27
2023-04-15T10:27:29.237Z,14.35
2023-04-15T10:29:57.233Z,14.27
2023-04-15T10:32:25.497Z,14.40
2023-04-15T10:34:54.414Z,14.58
2023-04-15T10:37:23.517Z,14.66
2023-04-15T10:39:50.735Z,14.68
2023-04-15T10:42:19.312Z,14.72
2023-04-15T10:44:51.488Z,14.94
2023-04-15T10:47:21.117Z,15.25
2023-04-15T10:49:50.576Z,15.27
2023-04-15T10:52:22.811Z,15.07
2023-04-15T10:54:49.297Z,14.88
2023-04-15T10:57:23.581Z,14.85
2023-04-15T10:59:59.105Z,14.92
2023-04-15T11:02:42.467Z,14.92
2023-04-15T11:05:10.925Z,14.67
2023-04-15T11:07:41.708Z,14.99
2023-04-15T11:10:13.945Z,15.30
2023-04-15T11:12:41.834Z,15.53
2023-04-15T11:15:33.286Z,15.70
2023-04-15T11:18:12.745Z,15.78
2023-04-15T11:20:41.486Z,15.76
2023-04-15T11:23:14.334Z,15.55
2023-04-15T11:25:43.451Z,15.41
2023-04-15T11:28:11.959Z,15.35
2023-04-15T11:30:39.364Z,15.55
2023-04-15T11:33:12.315Z,15.67
2023-04-15T11:35:40.945Z,15.86
2023-04-15T11:38:12.924Z,15.93
2023-04-15T11:40:40.334Z,15.49
2023-04-15T11:43:10.722Z,15.92
2023-04-15T11:45:38.996Z,16.32
2023-04-15T11:48:07.767Z,16.53
2023-04-15T11:50:34.840Z,16.62
2023-04-15T11:53:03.676Z,16.57
2023-04-15T11:55:31.791Z,16.41
2023-04-15T11:58:16.533Z,16.39
2023-04-15T12:00:48.764Z,16.18
2023-04-15T12:03:43.427Z,15.82
2023-04-15T12:06:17.665Z,15.73
2023-04-15T12:09:12.429Z,15.77
2023-04-15T12:11:49.936Z,16.16
2023-04-15T12:14:30.511Z,16.48
2023-04-15T12:16:59.970Z,16.64
2023-04-15T12:19:41.856Z,16.84
2023-04-15T12:22:16.408Z,16.50
2023-04-15T12:24:46.993Z,15.86
2023-04-15T12:27:15.002Z,15.97
2023-04-15T12:29:43.203Z,16.44
2023-04-15T12:32:11.660Z,16.24
2023-04-15T12:34:43.498Z,16.25
2023-04-15T12:37:13.152Z,16.45
2023-04-15T12:39:41.804Z,16.22
2023-04-15T12:42:09.521Z,16.07
2023-04-15T12:44:37.400Z,15.79
2023-04-15T12:47:04.572Z,15.43
2023-04-15T12:49:32.793Z,15.63
2023-04-15T12:52:01.046Z,15.75
2023-04-15T12:54:28.627Z,15.96
2023-04-15T12:56:55.779Z,15.85
2023-04-15T12:59:24.037Z,15.46
2023-04-15T13:01:52.423Z,15.20
2023-04-15T13:04:20.175Z,15.52
2023-04-15T13:06:46.842Z,15.93
2023-04-15T13:09:13.403Z,16.09
2023-04-15T13:11:40.031Z,16.01
2023-04-15T13:14:09.310Z,15.97
2023-04-15T13:16:36.220Z,16.07
2023-04-15T13:19:03.938Z,16.00
2023-04-15T13:21:34.981Z,15.68
2023-04-15T13:24:02.112Z,15.84
2023-04-15T13:26:29.157Z,15.93
2023-04-15T13:28:56.202Z,16.06
2023-04-15T13:31:22.691Z,16.01
2023-04-15T13:33:49.188Z,15.82
2023-04-15T13:36:15.883Z,15.66
2023-04-15T13:38:42.533Z,15.55
2023-04-15T13:41:09.047Z,15.38
2023-04-15T13:43:35.801Z,15.51
2023-04-15T13:46:02.724Z,15.82
2023-04-15T13:48:29.261Z,15.55
2023-04-15T13:50:55.775Z,15.41
2023-04-15T13:53:28.178Z,15.18
2023-04-15T13:56:07.256Z,15.24
2023-04-15T13:58:33.868Z,15.08
2023-04-15T14:01:00.888Z,14.86
2023-04-15T14:03:28.719Z,14.87
2023-04-15T14:05:56.929Z,15.04
2023-04-15T14:08:25.030Z,15.50
2023-04-15T14:10:51.484Z,15.64
2023-04-15T14:13:19.523Z,15.48
2023-04-15T14:15:46.601Z,15.15
2023-04-15T14:18:13.182Z,15.08
2023-04-15T14:20:39.660Z,14.92
2023-04-15T14:23:06.193Z,14.80
2023-04-15T14:25:34.029Z,14.59
2023-04-15T14:28:01.477Z,14.31
2023-04-15T14:30:28.001Z,13.88
2023-04-15T14:32:54.533Z,13.65
2023-04-15T14:35:21.234Z,13.63
2023-04-15T14:37:47.709Z,13.65
2023-04-15T14:40:14.728Z,13.68
2023-04-15T14:42:41.256Z,13.81
2023-04-15T14:45:08.353Z,13.59
2023-04-15T14:47:34.955Z,13.53
2023-04-15T14:50:02.359Z,13.30
2023-04-15T14:52:28.915Z,13.11
2023-04-15T14:54:55.724Z,13.07
2023-04-15T14:57:22.197Z,13.20
2023-04-15T14:59:48.631Z,13.22
2023-04-15T15:02:26.234Z,13.40
2023-04-15T15:05:02.205Z,13.31
2023-04-15T15:07:28.851Z,13.53
2023-04-15T15:09:56.333Z,13.74
2023-04-15T15:12:23.539Z,13.82
2023-04-15T15:14:50.022Z,13.78
2023-04-15T15:17:18.467Z,13.66
2023-04-15T15:19:45.155Z,13.31
2023-04-15T15:22:11.687Z,13.03
2023-04-15T15:24:38.145Z,12.93
2023-04-15T15:27:04.992Z,13.07
2023-04-15T15:29:31.478Z,12.90
2023-04-15T15:31:57.958Z,12.80
2023-04-15T15:34:24.446Z,12.72
2023-04-15T15:36:50.979Z,12.77
2023-04-15T15:39:17.498Z,12.74
2023-04-15T15:41:44.039Z,12.52
2023-04-15T15:44:10.680Z,12.55
2023-04-15T15:46:37.161Z,12.72
2023-04-15T15:49:04.255Z,12.71
2023-04-15T15:51:32.006Z,12.64
2023-04-15T15:53:58.649Z,12.37
2023-04-15T15:56:25.272Z,12.04
2023-04-15T15:58:51.860Z,11.87
2023-04-15T16:01:18.542Z,11.88
2023-04-15T16:03:45.096Z,11.81
2023-04-15T16:06:11.694Z,11.75
2023-04-15T16:08:38.225Z,11.89
2023-04-15T16:11:04.725Z,11.81
2023-04-15T16:13:31.232Z,11.66
2023-04-15T16:15:57.734Z,11.41
2023-04-15T16:18:24.227Z,11.51
2023-04-15T16:20:50.896Z,11.57
2023-04-15T16:23:17.587Z,11.61
2023-04-15T16:25:44.829Z,11.64
2023-04-15T16:28:23.079Z,11.68
2023-04-15T16:30:52.827Z,11.60
2023-04-15T16:33:19.297Z,11.41
2023-04-15T16:35:45.906Z,11.46
2023-04-15T16:38:12.567Z,11.34
2023-04-15T16:40:39.070Z,11.18
2023-04-15T16:43:07.432Z,11.00
2023-04-15T16:45:33.931Z,11.02
2023-04-15T16:48:00.496Z,11.00
2023-04-15T16:50:27.263Z,11.01
2023-04-15T16:52:54.357Z,11.04
2023-04-15T16:55:20.903Z,11.10
2023-04-15T16:58:02.562Z,11.00
2023-04-15T17:00:31.405Z,10.84
2023-04-15T17:02:58.945Z,10.83
2023-04-15T17:05:27.509Z,10.92
2023-04-15T17:07:54.238Z,10.89
2023-04-15T17:10:20.832Z,10.80
2023-04-15T17:12:47.307Z,10.75
2023-04-15T17:15:13.830Z,10.53
2023-04-15T17:17:40.361Z,10.58
2023-04-15T17:20:07.987Z,10.67
2023-04-15T17:22:34.591Z,10.65
2023-04-15T17:25:01.104Z,10.60
2023-04-15T17:27:28.875Z,10.72
2023-04-15T17:29:55.530Z,10.66
2023-04-15T17:32:22.716Z,10.58
2023-04-15T17:34:51.423Z,10.58
2023-04-15T17:37:18.461Z,10.42
2023-04-15T17:39:45.378Z,10.50
2023-04-15T17:42:12.868Z,10.58
2023-04-15T17:44:39.957Z,10.53
2023-04-15T17:47:06.787Z,10.55
2023-04-15T17:49:34.305Z,10.59
2023-04-15T17:52:01.175Z,10.76
2023-04-15T17:54:28.014Z,10.74
2023-04-15T17:56:54.614Z,10.67
2023-04-15T17:59:21.330Z,10.53
2023-04-15T18:01:48.031Z,10.48
2023-04-15T18:04:14.928Z,10.39
2023-04-15T18:06:41.741Z,10.22
2023-04-15T18:09:09.080Z,10.25
2023-04-15T18:11:35.713Z,10.37
2023-04-15T18:14:04.063Z,10.32
2023-04-15T18:16:31.000Z,10.28
2023-04-15T18:18:57.635Z,10.27
2023-04-15T18:21:24.184Z,10.11
2023-04-15T18:23:50.727Z,10.05
2023-04-15T18:26:17.263Z,10.24
2023-04-15T18:28:43.791Z,10.25
2023-04-15T18:31:10.368Z,10.17
2023-04-15T18:33:36.891Z,10.30
2023-04-15T18:36:03.668Z,10.39
2023-04-15T18:38:30.298Z,10.40
2023-04-15T18:40:56.793Z,10.21
2023-04-15T18:43:23.273Z,10.25
2023-04-15T18:45:51.859Z,10.05
2023-04-15T18:48:18.346Z,9.96
2023-04-15T18:50:44.849Z,10.02
2023-04-15T18:53:11.422Z,9.97
2023-04-15T18:55:39.641Z,9.89
2023-04-15T18:58:08.845Z,9.83
2023-04-15T19:00:38.937Z,9.81
2023-04-15T19:03:06.550Z,9.89
2023-04-15T19:05:33.639Z,9.75
2023-04-15T19:08:00.508Z,9.76
2023-04-15T19:10:28.136Z,9.65
2023-04-15T19:12:55.430Z,9.72
2023-04-15T19:15:22.033Z,9.71
2023-04-15T19:17:48.565Z,9.64
2023-04-15T19:20:15.224Z,9.68
2023-04-15T19:22:43.138Z,9.56
2023-04-15T19:25:10.291Z,9.64
2023-04-15T19:27:38.267Z,9.74
2023-04-15T19:30:07.018Z,9.74
2023-04-15T19:32:34.290Z,9.67
2023-04-15T19:35:00.807Z,9.57
2023-04-15T19:37:27.434Z,9.48
2023-04-15T19:39:55.697Z,9.46
2023-04-15T19:42:22.159Z,9.47
2023-04-15T19:44:48.643Z,9.49
2023-04-15T19:47:15.491Z,9.46
2023-04-15T19:49:42.007Z,9.49
2023-04-15T19:52:08.917Z,9.47
2023-04-15T19:54:35.487Z,9.43
2023-04-15T19:57:02.148Z,9.39
2023-04-15T19:59:28.651Z,9.38
2023-04-15T20:01:55.412Z,9.41
2023-04-15T20:04:22.590Z,9.44
2023-04-15T20:06:49.900Z,9.44
2023-04-15T20:09:16.675Z,9.42
2023-04-15T20:12:46.036Z,9.52
2023-04-15T20:14:29.877Z,9.43
2023-04-15T20:16:56.359Z,9.38
2023-04-15T20:19:22.864Z,9.43
2023-04-15T20:21:51.968Z,9.38
2023-04-15T20:24:20.237Z,9.41
2023-04-15T20:26:47.197Z,9.42
2023-04-15T20:29:14.129Z,9.54
2023-04-15T20:31:41.044Z,9.49
2023-04-15T20:34:09.944Z,9.50
2023-04-15T20:36:37.842Z,9.48
2023-04-15T20:39:04.498Z,9.42
2023-04-15T20:41:31.431Z,9.40
2023-04-15T20:43:57.960Z,9.38
2023-04-15T20:46:26.630Z,9.41
2023-04-15T20:48:54.026Z,9.36
2023-04-15T20:51:20.562Z,9.33
2023-04-15T20:53:47.121Z,9.46
2023-04-15T20:56:13.671Z,9.51
2023-04-15T20:58:40.182Z,9.46
2023-04-15T21:01:06.773Z,9.39
2023-04-15T21:03:33.605Z,9.44
2023-04-15T21:06:00.226Z,9.32
2023-04-15T21:08:29.677Z,9.38
2023-04-15T21:10:56.834Z,9.37
2023-04-15T21:13:24.159Z,9.32
2023-04-15T21:15:53.433Z,9.35
2023-04-15T21:18:23.767Z,9.38
2023-04-15T21:21:00.840Z,9.24
2023-04-15T21:23:30.971Z,9.26
2023-04-15T21:25:58.782Z,9.28
2023-04-15T21:28:27.869Z,9.18
2023-04-15T21:30:54.329Z,9.16
2023-04-15T21:33:20.883Z,9.21
2023-04-15T21:35:47.523Z,9.33
2023-04-15T21:38:14.494Z,9.34
2023-04-15T21:40:41.074Z,9.33
2023-04-15T21:43:08.183Z,9.33
2023-04-15T21:45:35.320Z,9.30
2023-04-15T21:48:07.647Z,9.26
2023-04-15T21:50:38.476Z,9.23
2023-04-15T21:53:07.791Z,9.14
2023-04-15T21:55:34.407Z,9.24
2023-04-15T21:58:00.887Z,9.33
2023-04-15T22:00:27.627Z,9.39
2023-04-15T22:02:54.140Z,9.37
2023-04-15T22:05:20.698Z,9.38
2023-04-15T22:07:47.238Z,9.26
2023-04-15T22:10:13.696Z,9.24
2023-04-15T22:12:41.777Z,9.21
2023-04-15T22:15:08.628Z,9.29
2023-04-15T22:17:35.115Z,9.29
2023-04-15T22:20:01.660Z,9.31
2023-04-15T22:22:44.334Z,9.29
2023-04-15T22:25:11.721Z,9.26
2023-04-15T22:27:38.310Z,9.33
2023-04-15T22:30:05.605Z,9.31
2023-04-15T22:32:32.077Z,9.32
2023-04-15T22:34:58.508Z,9.31
2023-04-15T22:37:25.047Z,9.22
2023-04-15T22:39:51.907Z,9.35
2023-04-15T22:42:18.373Z,9.28
2023-04-15T22:44:44.840Z,9.18
2023-04-15T22:47:11.274Z,9.19
2023-04-15T22:49:37.802Z,9.31
2023-04-15T22:52:04.415Z,9.36
2023-04-15T22:54:31.201Z,9.27
2023-04-15T22:56:57.905Z,9.33
2023-04-15T22:59:25.776Z,9.39
2023-04-15T23:01:52.762Z,9.39
2023-04-15T23:04:27.847Z,9.41
2023-04-15T23:06:54.718Z,9.45
2023-04-15T23:09:21.447Z,9.51
2023-04-15T23:11:48.016Z,9.36
2023-04-15T23:14:14.464Z,9.38
2023-04-15T23:16:41.009Z,9.34
2023-04-15T23:19:08.327Z,9.30
2023-04-15T23:21:35.386Z,9.31
2023-04-15T23:24:02.007Z,9.31
2023-04-15T23:26:28.611Z,9.36
2023-04-15T23:28:55.514Z,9.34
2023-04-15T23:31:22.097Z,9.27
2023-04-15T23:33:48.620Z,9.27
2023-04-15T23:36:15.080Z,9.31
2023-04-15T23:38:42.250Z,9.39
2023-04-15T23:41:09.875Z,9.36
2023-04-15T23:43:36.687Z,9.32
2023-04-15T23:46:03.503Z,9.33
2023-04-15T23:48:30.140Z,9.37
2023-04-15T23:50:56.571Z,9.38
2023-04-15T23:53:23.076Z,9.31
2023-04-15T23:55:49.581Z,9.26
2023-04-15T23:58:16.051Z,9.24
